This is the latest recevied weather packets stored in our database for station/object DB0RSR-12. If no packets are shown the sender has not sent any weather packets the latest 10 day(s).
| Time | Temp. | Humidity | Pressure | Rain* | Wind** | Luminosity | Snow |
|---|---|---|---|---|---|---|---|
| 1777726560 | 37.22° C | 14% | 1003 hPa | - | - | - | - |
| 1777725660 | 37.22° C | 15% | 1004 hPa | - | - | - | - |
| 1777724760 | 37.22° C | 14% | 1004 hPa | - | - | - | - |
| 1777723860 | 37.22° C | 15% | 1004 hPa | - | - | - | - |
| 1777722960 | 36.67° C | 16% | 1004 hPa | - | - | - | - |
| 1777722060 | 37.22° C | 15% | 1004 hPa | - | - | - | - |
| 1777721159 | 36.11° C | 15% | 1005 hPa | - | - | - | - |
| 1777720260 | 36.11° C | 16% | 1005 hPa | - | - | - | - |
| 1777719359 | 35° C | 17% | 1005 hPa | - | - | - | - |
| 1777718459 | 33.89° C | 18% | 1005 hPa | - | - | - | - |
| 1777717559 | 33.89° C | 19% | 1005 hPa | - | - | - | - |
| 1777716659 | 32.78° C | 19% | 1005 hPa | - | - | - | - |
| 1777715759 | 32.22° C | 21% | 1006 hPa | - | - | - | - |
| 1777714859 | 31.11° C | 23% | 1006 hPa | - | - | - | - |
| 1777713959 | 30° C | 24% | 1006 hPa | - | - | - | - |
| 1777713059 | 30° C | 24% | 1006 hPa | - | - | - | - |
| 1777712159 | 27.78° C | 29% | 1006 hPa | - | - | - | - |
| 1777711259 | 26.67° C | 31% | 1006 hPa | - | - | - | - |
| 1777710359 | 26.11° C | 32% | 1006 hPa | - | - | - | - |
| 1777709459 | 23.89° C | 35% | 1006 hPa | - | - | - | - |
| 1777708559 | 22.78° C | 36% | 1006 hPa | - | - | - | - |
| 1777707659 | 21.67° C | 39% | 1007 hPa | - | - | - | - |
| 1777706758 | 20.56° C | 41% | 1007 hPa | - | - | - | - |
| 1777705858 | 18.89° C | 46% | 1007 hPa | - | - | - | - |
| 1777704958 | 17.78° C | 49% | 1007 hPa | - | - | - | - |
* Rain since midnight (hover to see other rain measurements)
** Current wind speed in m/s (hover to see current wind gust speed)